createdAt,value
2023-02-06T00:00:59.706Z,4
2023-02-06T00:20:18.164Z,3.9
2023-02-06T00:39:31.639Z,3.8
2023-02-06T00:58:46.813Z,3.7
2023-02-06T01:18:06.944Z,3.5
2023-02-06T01:37:24.488Z,3
2023-02-06T01:56:36.513Z,2.6
2023-02-06T02:15:53.655Z,2.1
2023-02-06T02:35:06.561Z,2.1
2023-02-06T02:54:22.868Z,2.1
2023-02-06T03:13:39.444Z,2.1
2023-02-06T03:32:56.933Z,1.9
2023-02-06T03:52:14.591Z,1.9
2023-02-06T04:11:30.810Z,1.9
2023-02-06T04:30:47.013Z,1.7
2023-02-06T04:50:04.593Z,1.9
2023-02-06T05:09:21.161Z,1.7
2023-02-06T05:28:38.240Z,1.7
2023-02-06T05:47:55.203Z,1.3
2023-02-06T06:07:12.210Z,1.4
2023-02-06T06:26:27.649Z,1.4
2023-02-06T06:45:44.807Z,1.4
2023-02-06T07:05:01.300Z,1.1
2023-02-06T07:24:18.823Z,1.1
2023-02-06T07:43:35.738Z,1.3
2023-02-06T08:02:52.436Z,1.5
2023-02-06T08:22:07.467Z,1.6
2023-02-06T08:41:26.776Z,2.1
2023-02-06T09:00:45.452Z,2.7
2023-02-06T09:20:07.606Z,3.1
2023-02-06T09:39:23.921Z,3.3
2023-02-06T09:58:44.434Z,3.6
2023-02-06T10:18:06.078Z,3.2
2023-02-06T10:37:17.698Z,4
2023-02-06T10:56:36.284Z,2.9
2023-02-06T11:15:58.631Z,1.7
2023-02-06T11:35:15.406Z,1.7
2023-02-06T11:54:32.450Z,1.3
2023-02-06T12:13:51.585Z,0.8
2023-02-06T12:33:09.744Z,1.2
2023-02-06T12:52:27.392Z,1.1
2023-02-06T13:11:45.296Z,2.6
2023-02-06T13:31:03.486Z,2.9
2023-02-06T13:50:18.322Z,3
2023-02-06T14:09:34.136Z,2.8
2023-02-06T14:28:51.171Z,3.3
2023-02-06T14:48:08.352Z,3.3
2023-02-06T15:07:26.546Z,3.1
2023-02-06T15:26:42.899Z,3.1
2023-02-06T15:45:58.702Z,2.8
2023-02-06T16:05:14.498Z,2.8
2023-02-06T16:24:30.332Z,2.7
2023-02-06T16:43:46.142Z,2.3
2023-02-06T17:03:01.273Z,2.1
2023-02-06T17:22:17.311Z,1.9
2023-02-06T17:41:47.198Z,1.7
2023-02-06T18:00:52.455Z,1.7
2023-02-06T18:20:08.624Z,1.4
2023-02-06T18:39:25.859Z,1.1
2023-02-06T18:58:40.641Z,1.2
2023-02-06T19:17:59.675Z,1.1
2023-02-06T19:37:15.144Z,0.9
2023-02-06T19:56:32.750Z,1
2023-02-06T20:15:49.529Z,1
2023-02-06T20:35:05.825Z,1.1
2023-02-06T20:54:22.842Z,1
2023-02-06T21:13:33.380Z,1
2023-02-06T21:32:51.538Z,0.7
2023-02-06T21:52:07.200Z,0.6
2023-02-06T22:11:24.633Z,0.7
2023-02-06T22:30:41.711Z,0.5
2023-02-06T22:49:58.674Z,-0.3
2023-02-06T23:09:15.285Z,-0.3
2023-02-06T23:28:30.395Z,-0.7
2023-02-06T23:47:47.911Z,-0.9
